Time;durP1;ratioP1;P1;durP2;ratioP2;P2;SDS_P1;SDS_P2;PMS_P1;PMS_P2;Temp;Humidity;BMP_temperature;BMP_pressure;BME280_temperature;BME280_humidity;BME280_pressure;Samples;Min_cycle;Max_cycle;Signal;HPM_P1;HPM_P2
2021/07/24 00:02:16;;;;;;;21.30;15.33;;;15.50;93.40;;;;;;5117808;28;20048;-66
2021/07/24 00:04:42;;;;;;;23.40;15.60;;;15.50;93.40;;;;;;5118728;27;20055;-66
2021/07/24 00:07:07;;;;;;;18.60;12.77;;;15.50;93.40;;;;;;5118637;28;20103;-66
2021/07/24 00:09:33;;;;;;;16.70;11.50;;;15.50;93.40;;;;;;5118332;28;20149;-66
2021/07/24 00:11:58;;;;;;;18.53;12.70;;;15.50;93.30;;;;;;5118646;28;20409;-65
2021/07/24 00:14:24;;;;;;;17.40;13.63;;;15.50;93.30;;;;;;5118443;28;20047;-66
2021/07/24 00:16:51;;;;;;;16.97;13.00;;;15.40;93.30;;;;;;5118064;28;20050;-66
2021/07/24 00:19:16;;;;;;;18.03;13.33;;;15.40;93.30;;;;;;5118217;28;20047;-66
2021/07/24 00:21:42;;;;;;;19.03;13.30;;;15.40;93.30;;;;;;5118723;28;20104;-66
2021/07/24 00:24:07;;;;;;;18.00;14.33;;;15.40;93.30;;;;;;5117491;28;20150;-66
2021/07/24 00:26:35;;;;;;;17.50;13.53;;;15.30;93.30;;;;;;5118504;28;20492;-66
2021/07/24 00:29:02;;;;;;;16.57;12.80;;;15.40;93.40;;;;;;5118373;28;20040;-66
2021/07/24 00:31:29;;;;;;;19.80;13.47;;;15.30;93.40;;;;;;5117991;28;20058;-66
2021/07/24 00:33:56;;;;;;;18.47;14.67;;;15.30;93.40;;;;;;5118321;28;20103;-66
2021/07/24 00:36:21;;;;;;;23.93;14.33;;;15.30;93.40;;;;;;5118198;28;20134;-66
2021/07/24 00:38:47;;;;;;;23.00;14.00;;;15.30;93.40;;;;;;5118003;28;20226;-66
2021/07/24 00:41:20;;;;;;;21.47;15.47;;;15.30;93.50;;;;;;5118310;28;20131;-66
2021/07/24 00:43:50;;;;;;;20.23;15.10;;;15.30;93.50;;;;;;5117806;28;20412;-66
2021/07/24 00:46:17;;;;;;;22.00;15.57;;;15.30;93.50;;;;;;5118106;28;20153;-65
2021/07/24 00:48:44;;;;;;;23.00;15.47;;;15.30;93.60;;;;;;5115707;28;20066;-66
2021/07/24 00:51:10;;;;;;;27.07;18.03;;;15.30;93.60;;;;;;5114631;28;20051;-65
2021/07/24 00:53:46;;;;;;;26.93;17.07;;;15.20;93.70;;;;;;5115517;28;20433;-66
2021/07/24 00:56:11;;;;;;;24.23;17.80;;;15.20;93.70;;;;;;5114897;28;20043;-65
2021/07/24 00:58:37;;;;;;;23.80;16.87;;;15.20;93.80;;;;;;5114295;28;20077;-66
2021/07/24 01:01:04;;;;;;;27.53;17.53;;;15.20;93.90;;;;;;5114572;28;20054;-66
2021/07/24 01:03:30;;;;;;;27.67;18.30;;;15.20;93.90;;;;;;5114832;28;20441;-65
2021/07/24 01:05:58;;;;;;;27.03;17.57;;;15.10;93.90;;;;;;5114297;28;20127;-65
2021/07/24 01:08:24;;;;;;;24.93;16.67;;;15.10;93.90;;;;;;5114661;28;20150;-65
2021/07/24 01:10:51;;;;;;;23.77;16.93;;;15.10;94.00;;;;;;5115064;28;20480;-66
2021/07/24 01:13:17;;;;;;;25.57;18.10;;;15.10;94.10;;;;;;5113683;28;20047;-66
2021/07/24 01:15:48;;;;;;;21.90;16.63;;;15.10;94.20;;;;;;5114577;28;20047;-66
2021/07/24 01:18:15;;;;;;;25.80;17.60;;;15.00;94.10;;;;;;5114438;28;20119;-66
2021/07/24 01:20:41;;;;;;;27.43;18.13;;;15.00;94.20;;;;;;5113890;28;20130;-66
2021/07/24 01:23:09;;;;;;;24.93;18.07;;;15.00;94.30;;;;;;5114361;28;20131;-65
2021/07/24 01:25:47;;;;;;;31.27;19.60;;;15.00;94.30;;;;;;5114374;28;20488;-66
2021/07/24 01:28:14;;;;;;;23.40;16.23;;;15.00;94.30;;;;;;5113618;28;20044;-66
2021/07/24 01:30:43;;;;;;;24.07;17.70;;;15.00;94.30;;;;;;5114840;28;20051;-66
2021/07/24 01:33:10;;;;;;;28.13;17.23;;;14.90;94.30;;;;;;5113376;28;20058;-66
2021/07/24 01:35:36;;;;;;;28.17;16.57;;;14.90;94.40;;;;;;5114400;28;20196;-66
2021/07/24 01:38:06;;;;;;;23.00;16.23;;;14.90;94.50;;;;;;5113993;28;20054;-66
2021/07/24 01:40:32;;;;;;;25.40;17.77;;;14.90;94.60;;;;;;5113903;28;20385;-66
2021/07/24 01:42:58;;;;;;;27.07;17.90;;;14.90;94.60;;;;;;5114298;28;20073;-66
2021/07/24 01:45:23;;;;;;;27.30;17.87;;;14.80;94.60;;;;;;5114047;28;20052;-65
2021/07/24 01:47:50;;;;;;;26.47;17.83;;;14.80;94.70;;;;;;5113430;28;20097;-65
2021/07/24 01:53:03;;;;;;;31.90;17.87;;;14.70;94.70;;;;;;5113508;28;20048;-65
2021/07/24 01:55:51;;;;;;;26.97;17.63;;;14.80;94.80;;;;;;5113370;28;20082;-65
2021/07/24 01:58:22;;;;;;;29.83;17.23;;;14.80;94.80;;;;;;5113675;28;20051;-65
2021/07/24 02:00:49;;;;;;;24.52;17.58;;;14.70;94.80;;;;;;5114055;28;20047;-65
2021/07/24 02:03:16;;;;;;;33.63;19.40;;;14.70;94.80;;;;;;5112741;28;20048;-65
2021/07/24 02:05:46;;;;;;;31.03;19.67;;;14.70;94.80;;;;;;5113613;28;20488;-65
2021/07/24 02:08:18;;;;;;;25.05;17.83;;;14.70;94.90;;;;;;5112824;28;20074;-65
2021/07/24 02:10:44;;;;;;;28.63;17.90;;;14.70;94.90;;;;;;5113546;28;20597;-65
2021/07/24 02:13:11;;;;;;;33.57;19.47;;;14.60;94.90;;;;;;5113392;28;20047;-65
2021/07/24 02:15:37;;;;;;;29.73;18.77;;;14.60;94.90;;;;;;5112698;28;20055;-65
2021/07/24 02:18:04;;;;;;;31.30;20.00;;;14.60;94.80;;;;;;5113129;28;20047;-65
2021/07/24 02:20:30;;;;;;;27.17;19.13;;;14.60;94.80;;;;;;5113514;28;20043;-65
2021/07/24 02:22:56;;;;;;;28.13;18.87;;;14.70;94.80;;;;;;5112366;28;20115;-65
2021/07/24 02:25:22;;;;;;;32.10;19.50;;;14.60;94.80;;;;;;5113317;28;20052;-65
2021/07/24 02:27:49;;;;;;;25.33;17.00;;;14.60;94.90;;;;;;5113511;28;20052;-65
2021/07/24 02:30:16;;;;;;;25.67;17.03;;;14.60;94.80;;;;;;5112256;28;20408;-65
2021/07/24 02:32:42;;;;;;;25.27;15.17;;;14.60;94.80;;;;;;5113223;28;20055;-65
2021/07/24 02:35:09;;;;;;;27.23;18.00;;;14.60;94.70;;;;;;5112937;28;20126;-65
2021/07/24 02:37:35;;;;;;;26.50;17.70;;;14.60;94.70;;;;;;5112547;28;20050;-65
2021/07/24 02:40:02;;;;;;;25.30;17.33;;;14.50;94.70;;;;;;5112888;28;20052;-65
2021/07/24 02:42:28;;;;;;;28.77;18.53;;;14.50;94.70;;;;;;5112984;28;20082;-65
2021/07/24 02:44:54;;;;;;;25.80;18.23;;;14.40;94.60;;;;;;5112321;28;20460;-65
2021/07/24 02:47:19;;;;;;;24.60;16.80;;;14.40;94.60;;;;;;5112474;28;20166;-65
2021/07/24 02:49:45;;;;;;;29.17;18.27;;;14.40;94.60;;;;;;5112710;28;20050;-64
2021/07/24 02:52:11;;;;;;;28.87;19.53;;;14.30;94.60;;;;;;5111554;28;20074;-64
2021/07/24 02:54:37;;;;;;;31.57;18.13;;;14.30;94.60;;;;;;5112482;28;20048;-65
2021/07/24 02:57:03;;;;;;;26.67;18.47;;;14.30;94.70;;;;;;5112186;28;20055;-66
2021/07/24 02:59:29;;;;;;;27.07;16.70;;;14.30;94.70;;;;;;5111642;28;20526;-65
2021/07/24 03:01:56;;;;;;;26.60;17.93;;;14.30;94.70;;;;;;5112262;28;20047;-66
2021/07/24 03:04:21;;;;;;;24.07;17.10;;;14.30;94.70;;;;;;5111653;28;20043;-65
2021/07/24 03:06:47;;;;;;;27.87;18.77;;;14.30;94.70;;;;;;5112443;28;20483;-65
2021/07/24 03:09:15;;;;;;;24.43;15.80;;;14.30;94.70;;;;;;5111916;28;20404;-65
2021/07/24 03:11:41;;;;;;;26.83;17.90;;;14.20;94.70;;;;;;5111047;28;20036;-66
2021/07/24 03:14:06;;;;;;;25.23;17.50;;;14.20;94.80;;;;;;5111736;28;20044;-65
2021/07/24 03:16:32;;;;;;;27.20;16.93;;;14.20;94.90;;;;;;5112144;28;20044;-65
2021/07/24 03:19:01;;;;;;;30.93;18.37;;;14.20;95.00;;;;;;5111256;28;20047;-65
2021/07/24 03:21:27;;;;;;;28.47;19.07;;;14.20;95.00;;;;;;5112307;28;20396;-65
2021/07/24 03:23:52;;;;;;;25.47;17.60;;;14.20;95.10;;;;;;5112093;28;20056;-66
2021/07/24 03:26:19;;;;;;;29.53;18.63;;;14.20;95.10;;;;;;5111361;28;20426;-66
2021/07/24 03:28:45;;;;;;;34.37;18.10;;;14.20;95.20;;;;;;5112429;28;20093;-66
2021/07/24 03:31:11;;;;;;;24.63;17.13;;;14.10;95.30;;;;;;5111981;28;20047;-66
2021/07/24 03:33:37;;;;;;;26.03;17.80;;;14.10;95.30;;;;;;5111421;28;20054;-66
2021/07/24 03:36:02;;;;;;;33.57;18.00;;;14.20;95.30;;;;;;5112123;28;20140;-66
2021/07/24 03:38:29;;;;;;;28.13;18.20;;;14.20;95.40;;;;;;5112495;28;20051;-65
2021/07/24 03:40:54;;;;;;;31.50;18.70;;;14.20;95.40;;;;;;5111503;28;20054;-66
2021/07/24 03:43:20;;;;;;;27.23;18.00;;;14.20;95.30;;;;;;5112012;28;20083;-66
2021/07/24 03:45:45;;;;;;;28.97;17.70;;;14.20;95.30;;;;;;5112384;28;20054;-65
2021/07/24 03:48:11;;;;;;;29.87;18.03;;;14.20;95.30;;;;;;5111421;28;20054;-65
2021/07/24 03:50:40;;;;;;;27.43;16.77;;;14.20;95.30;;;;;;5112266;28;20492;-65
2021/07/24 03:53:05;;;;;;;25.93;17.47;;;14.20;95.30;;;;;;5111977;28;20050;-66
2021/07/24 03:55:34;;;;;;;28.63;17.47;;;14.20;95.30;;;;;;5111368;28;20048;-66
2021/07/24 03:58:00;;;;;;;30.20;18.80;;;14.20;95.30;;;;;;5111900;28;20497;-66
2021/07/24 04:00:33;;;;;;;27.03;19.43;;;14.20;95.30;;;;;;5112018;28;20495;-65
2021/07/24 04:03:02;;;;;;;27.17;18.63;;;14.20;95.30;;;;;;5111594;28;20044;-66
2021/07/24 04:05:28;;;;;;;29.33;18.00;;;14.20;95.40;;;;;;5112197;28;20052;-65
2021/07/24 04:07:55;;;;;;;26.80;17.77;;;14.20;95.40;;;;;;5111599;28;20044;-66
2021/07/24 04:10:20;;;;;;;26.17;17.80;;;14.20;95.40;;;;;;5111912;28;20062;-66
2021/07/24 04:12:49;;;;;;;30.80;19.27;;;14.20;95.40;;;;;;5111923;28;20043;-66
2021/07/24 04:15:25;;;;;;;31.73;20.27;;;14.20;95.40;;;;;;5111284;28;20052;-65
2021/07/24 04:17:52;;;;;;;29.37;18.20;;;14.20;95.50;;;;;;5112018;28;20218;-66
2021/07/24 04:20:20;;;;;;;29.90;17.80;;;14.20;95.50;;;;;;5111624;28;20050;-66
2021/07/24 04:22:49;;;;;;;28.73;18.27;;;14.30;95.50;;;;;;5111405;28;20060;-66
2021/07/24 04:25:15;;;;;;;28.63;18.07;;;14.30;95.50;;;;;;5116095;28;20079;-65
2021/07/24 04:27:41;;;;;;;29.40;17.93;;;14.30;95.50;;;;;;5115555;28;20117;-65
2021/07/24 04:30:07;;;;;;;31.30;20.50;;;14.40;95.50;;;;;;5114746;28;20055;-66
2021/07/24 04:32:33;;;;;;;29.40;19.97;;;14.40;95.50;;;;;;5115666;28;20047;-65
2021/07/24 04:34:58;;;;;;;30.60;18.63;;;14.50;95.50;;;;;;5115634;28;20048;-65
2021/07/24 04:37:24;;;;;;;33.13;20.07;;;14.50;95.60;;;;;;5114582;28;20039;-66
2021/07/24 04:39:50;;;;;;;27.37;18.20;;;14.50;95.60;;;;;;5115403;28;20063;-65
2021/07/24 04:42:16;;;;;;;28.43;18.83;;;14.60;95.50;;;;;;5115445;28;20450;-65
2021/07/24 04:44:42;;;;;;;29.30;18.63;;;14.60;95.50;;;;;;5114990;28;20395;-65
2021/07/24 04:47:07;;;;;;;28.63;18.23;;;14.60;95.40;;;;;;5115190;28;20043;-65
2021/07/24 04:49:33;;;;;;;29.17;19.37;;;14.70;95.40;;;;;;5115375;28;20048;-65
2021/07/24 04:52:00;;;;;;;30.00;18.13;;;14.70;95.40;;;;;;5114748;28;20404;-65
2021/07/24 04:54:27;;;;;;;25.13;18.57;;;14.70;95.40;;;;;;5115077;28;20047;-65
2021/07/24 04:56:53;;;;;;;27.80;17.70;;;14.70;95.30;;;;;;5114809;28;20044;-65
2021/07/24 04:59:19;;;;;;;28.53;16.97;;;14.80;95.20;;;;;;5115238;28;20181;-65
2021/07/24 05:01:45;;;;;;;27.90;18.27;;;14.80;95.20;;;;;;5115301;28;20044;-66
2021/07/24 05:04:11;;;;;;;28.87;17.67;;;14.80;95.20;;;;;;5114138;28;20051;-66
2021/07/24 05:06:37;;;;;;;24.83;16.57;;;14.80;95.20;;;;;;5115006;27;20043;-66
2021/07/24 05:09:08;;;;;;;22.57;16.80;;;14.90;95.20;;;;;;5114436;28;20070;-65
2021/07/24 05:11:34;;;;;;;;;;;14.90;95.10;;;;;;5114811;28;20043;-65
2021/07/24 05:14:01;;;;;;;26.53;16.13;;;15.00;95.10;;;;;;5114656;28;19919;-66
2021/07/24 05:16:27;;;;;;;24.10;16.53;;;15.00;94.90;;;;;;5114752;28;20051;-66
2021/07/24 05:18:52;;;;;;;23.30;17.13;;;15.10;94.80;;;;;;5113873;28;20059;-66
2021/07/24 05:21:18;;;;;;;25.40;16.83;;;15.20;94.80;;;;;;5114215;28;20082;-65
2021/07/24 05:23:44;;;;;;;23.30;16.40;;;15.30;94.90;;;;;;5114343;28;20100;-66
2021/07/24 05:26:14;;;;;;;20.03;15.23;;;15.50;95.40;;;;;;5113603;28;20464;-65
2021/07/24 05:28:40;;;;;;;22.00;16.63;;;15.90;95.00;;;;;;5114616;28;20051;-66
2021/07/24 05:31:17;;;;;;;21.27;15.67;;;16.40;94.30;;;;;;5114325;28;20401;-65
2021/07/24 05:33:42;;;;;;;20.40;15.10;;;16.70;93.40;;;;;;5113749;28;20090;-66
2021/07/24 05:36:08;;;;;;;20.80;17.00;;;16.70;92.90;;;;;;5113170;28;20488;-66
2021/07/24 05:38:34;;;;;;;25.47;16.37;;;16.60;92.80;;;;;;5114382;28;20047;-66
2021/07/24 05:41:00;;;;;;;20.07;15.00;;;16.50;92.80;;;;;;5113371;28;20097;-66
2021/07/24 05:43:27;;;;;;;19.50;14.17;;;16.30;92.80;;;;;;5114265;28;20092;-65
2021/07/24 05:45:52;;;;;;;18.30;14.30;;;16.30;93.00;;;;;;5114244;28;20044;-65
2021/07/24 05:48:18;;;;;;;21.97;15.77;;;16.30;93.10;;;;;;5113098;28;20051;-66
2021/07/24 05:50:44;;;;;;;20.63;15.03;;;16.20;93.00;;;;;;5114152;28;20141;-65
2021/07/24 05:53:09;;;;;;;19.53;14.17;;;16.30;93.00;;;;;;5112807;28;20400;-66
2021/07/24 05:55:37;;;;;;;18.97;15.07;;;16.30;92.80;;;;;;5113993;28;20058;-66
2021/07/24 05:58:09;;;;;;;21.08;15.15;;;16.30;92.70;;;;;;5113683;28;20048;-66
2021/07/24 06:00:35;;;;;;;23.07;14.03;;;16.30;92.60;;;;;;5113106;28;20060;-66
2021/07/24 06:03:00;;;;;;;20.97;14.63;;;16.30;92.70;;;;;;5113386;28;20109;-65
2021/07/24 06:05:26;;;;;;;19.00;13.80;;;16.40;92.60;;;;;;5113806;28;20096;-65
2021/07/24 06:07:51;;;;;;;18.90;13.67;;;16.40;92.40;;;;;;5112716;28;20043;-66
2021/07/24 06:10:17;;;;;;;18.53;13.90;;;16.50;92.30;;;;;;5113297;28;20040;-65
2021/07/24 06:12:47;;;;;;;19.17;13.97;;;16.50;92.10;;;;;;5113564;28;20420;-65
2021/07/24 06:15:15;;;;;;;18.33;12.67;;;16.60;91.90;;;;;;5112117;28;20586;-66
2021/07/24 06:17:41;;;;;;;17.40;13.63;;;16.60;91.80;;;;;;5113229;28;20059;-65
2021/07/24 06:20:07;;;;;;;17.87;13.13;;;16.60;91.80;;;;;;5112820;28;20051;-65
2021/07/24 06:22:33;;;;;;;15.63;13.30;;;16.60;91.70;;;;;;5112459;28;20059;-65
2021/07/24 06:24:58;;;;;;;19.67;12.70;;;16.70;91.60;;;;;;5113461;28;20085;-66
2021/07/24 06:27:24;;;;;;;18.13;12.70;;;16.70;91.50;;;;;;5113025;28;20048;-66
2021/07/24 06:29:52;;;;;;;17.83;13.43;;;16.70;91.40;;;;;;5112732;28;20047;-66
2021/07/24 06:32:17;;;;;;;18.10;13.63;;;16.70;91.30;;;;;;5112746;28;20043;-65
2021/07/24 06:34:43;;;;;;;19.57;12.73;;;16.70;91.40;;;;;;5113076;28;20071;-65
2021/07/24 06:37:08;;;;;;;18.67;12.43;;;16.80;91.40;;;;;;5112187;28;20127;-66
2021/07/24 06:39:34;;;;;;;15.43;12.30;;;16.80;91.40;;;;;;5112800;28;20040;-66
2021/07/24 06:42:00;;;;;;;16.67;12.03;;;16.90;91.40;;;;;;5112588;28;20048;-65
2021/07/24 06:44:27;;;;;;;17.43;12.60;;;16.90;91.40;;;;;;5111745;28;20112;-66
2021/07/24 06:46:53;;;;;;;16.80;12.53;;;17.00;91.50;;;;;;5111867;28;20180;-65
2021/07/24 06:49:19;;;;;;;16.57;13.03;;;17.10;91.50;;;;;;5111890;28;20055;-65
2021/07/24 06:51:45;;;;;;;14.13;11.70;;;17.40;91.60;;;;;;5111701;28;20035;-65
2021/07/24 06:54:11;;;;;;;17.17;12.50;;;17.70;91.10;;;;;;5111987;28;20044;-65
2021/07/24 06:56:37;;;;;;;17.60;12.63;;;17.80;90.90;;;;;;5112221;28;20062;-64
2021/07/24 06:59:03;;;;;;;15.67;11.87;;;17.90;90.70;;;;;;5112455;28;20448;-64
2021/07/24 07:01:29;;;;;;;16.87;12.30;;;18.00;90.50;;;;;;5112136;28;20043;-63
2021/07/24 07:03:55;;;;;;;16.03;11.90;;;18.00;90.30;;;;;;5111896;28;20499;-63
2021/07/24 07:06:20;;;;;;;15.50;12.03;;;18.00;90.30;;;;;;5112156;28;20047;-64
2021/07/24 07:08:46;;;;;;;15.77;12.17;;;17.90;90.20;;;;;;5112422;28;20044;-63
2021/07/24 07:11:13;;;;;;;16.03;12.67;;;17.90;90.00;;;;;;5111639;28;20054;-63
2021/07/24 07:13:38;;;;;;;16.23;11.93;;;17.90;90.00;;;;;;5112360;28;20035;-63
2021/07/24 07:16:08;;;;;;;15.83;12.03;;;17.90;90.00;;;;;;5112099;28;20050;-63
2021/07/24 07:18:36;;;;;;;17.23;12.30;;;17.90;90.10;;;;;;5111821;27;20043;-64
2021/07/24 07:21:02;;;;;;;17.03;12.33;;;17.90;90.10;;;;;;5112149;28;20051;-62
2021/07/24 07:23:28;;;;;;;14.87;12.33;;;18.00;90.30;;;;;;5111935;28;20051;-64
2021/07/24 07:25:54;;;;;;;14.00;11.67;;;18.20;90.20;;;;;;5111365;28;20463;-63
2021/07/24 07:28:20;;;;;;;16.13;11.90;;;18.40;89.80;;;;;;5111587;28;20130;-64
2021/07/24 07:30:45;;;;;;;16.67;12.27;;;18.50;89.00;;;;;;5112366;28;20050;-64
2021/07/24 07:33:11;;;;;;;13.83;10.13;;;18.50;88.60;;;;;;5110934;28;20088;-63
2021/07/24 07:35:37;;;;;;;11.70;9.73;;;18.60;88.40;;;;;;5112253;28;20172;-64
2021/07/24 07:38:02;;;;;;;14.47;10.87;;;18.60;88.30;;;;;;5111420;28;20440;-64
2021/07/24 07:40:28;;;;;;;12.67;9.90;;;18.60;88.00;;;;;;5111564;28;20048;-63
2021/07/24 07:42:54;;;;;;;12.20;10.40;;;18.70;87.30;;;;;;5111749;28;20112;-64
2021/07/24 07:45:20;;;;;;;15.10;10.60;;;18.70;86.80;;;;;;5111432;28;20051;-63
2021/07/24 07:47:45;;;;;;;10.57;9.23;;;18.80;86.50;;;;;;5111166;28;20044;-63
2021/07/24 07:50:11;;;;;;;15.03;11.37;;;18.80;86.20;;;;;;5111799;28;20453;-64
2021/07/24 07:52:37;;;;;;;11.77;10.57;;;18.80;85.80;;;;;;5111612;28;20044;-63
2021/07/24 07:55:03;;;;;;;12.57;9.77;;;18.80;85.30;;;;;;5110846;28;20380;-63
2021/07/24 07:57:29;;;;;;;11.97;10.00;;;18.90;85.30;;;;;;5112070;28;20139;-64
2021/07/24 07:59:56;;;;;;;14.43;10.67;;;18.90;85.30;;;;;;5115411;28;20480;-63
2021/07/24 08:02:21;;;;;;;14.73;10.80;;;18.90;85.80;;;;;;5115989;28;20101;-63
2021/07/24 08:04:50;;;;;;;12.77;10.67;;;19.00;85.90;;;;;;5116182;28;20051;-63
2021/07/24 08:07:17;;;;;;;13.97;10.80;;;19.10;85.40;;;;;;5114258;28;20078;-64
2021/07/24 08:09:42;;;;;;;12.37;10.13;;;19.10;85.40;;;;;;5113658;28;20112;-64
2021/07/24 08:12:08;;;;;;;12.37;9.50;;;19.20;85.50;;;;;;5113365;28;20484;-64
2021/07/24 08:14:34;;;;;;;14.67;10.87;;;19.30;85.50;;;;;;5113118;28;20571;-64
2021/07/24 08:16:59;;;;;;;15.40;10.87;;;19.30;85.50;;;;;;5113603;28;20380;-64
2021/07/24 08:19:26;;;;;;;12.50;9.27;;;19.40;85.60;;;;;;5113306;28;20127;-64
2021/07/24 08:21:52;;;;;;;10.40;8.43;;;19.60;85.60;;;;;;5112878;28;20048;-65
2021/07/24 08:24:18;;;;;;;10.83;9.53;;;19.80;85.20;;;;;;5114292;28;20047;-64
2021/07/24 08:26:43;;;;;;;11.23;9.23;;;19.90;85.10;;;;;;5115530;28;20187;-64
2021/07/24 08:29:09;;;;;;;11.30;9.40;;;20.10;84.70;;;;;;5114373;28;20058;-64
2021/07/24 08:31:34;;;;;;;15.90;10.10;;;20.30;84.00;;;;;;5115429;28;20047;-64
2021/07/24 08:34:03;;;;;;;13.50;9.80;;;20.40;82.80;;;;;;5115225;28;20055;-64
2021/07/24 08:36:28;;;;;;;11.07;9.20;;;20.50;82.10;;;;;;5114736;28;20054;-64
2021/07/24 08:38:54;;;;;;;11.02;9.40;;;20.50;82.60;;;;;;5115455;28;20071;-64
2021/07/24 08:41:20;;;;;;;11.80;9.00;;;20.60;83.00;;;;;;5115231;28;20110;-64
2021/07/24 08:43:46;;;;;;;12.50;9.57;;;20.70;83.40;;;;;;5114666;28;20120;-64
2021/07/24 08:46:12;;;;;;;11.82;8.82;;;20.90;82.80;;;;;;5114893;28;20047;-64
2021/07/24 08:48:39;;;;;;;11.20;8.15;;;21.00;81.60;;;;;;5115442;28;20120;-64
2021/07/24 08:51:05;;;;;;;10.55;8.63;;;21.30;80.20;;;;;;5114113;28;20433;-64
2021/07/24 08:53:38;;;;;;;9.68;8.65;;;21.30;78.80;;;;;;5114962;28;20123;-64
2021/07/24 08:56:13;;;;;;;12.77;10.50;;;21.30;78.20;;;;;;5113526;28;20086;-64
2021/07/24 08:58:42;;;;;;;11.00;9.70;;;21.30;77.40;;;;;;5114928;28;20051;-64
2021/07/24 09:01:18;;;;;;;11.07;8.70;;;21.20;76.40;;;;;;5114553;28;20043;-64
2021/07/24 09:03:44;;;;;;;10.50;9.02;;;21.20;76.60;;;;;;5114029;28;20082;-64
2021/07/24 09:06:15;;;;;;;10.95;7.60;;;21.10;76.40;;;;;;5114462;28;20044;-64
2021/07/24 09:08:41;;;;;;;11.07;8.30;;;21.10;76.30;;;;;;5114727;27;20047;-64
2021/07/24 09:11:07;;;;;;;13.60;8.43;;;21.10;76.10;;;;;;5112420;28;20044;-64
2021/07/24 09:13:33;;;;;;;9.07;8.05;;;21.20;76.40;;;;;;5114591;28;20048;-64
2021/07/24 09:15:59;;;;;;;10.40;8.40;;;21.20;76.40;;;;;;5114492;28;20062;-64
2021/07/24 09:18:25;;;;;;;11.02;8.77;;;21.30;76.50;;;;;;5113507;28;20485;-64
2021/07/24 09:20:52;;;;;;;11.10;8.93;;;21.30;76.30;;;;;;5114418;28;20516;-64
2021/07/24 09:23:29;;;;;;;9.50;8.50;;;21.50;75.60;;;;;;5113991;28;20150;-64
2021/07/24 09:25:55;;;;;;;12.18;9.48;;;21.60;75.70;;;;;;5113491;28;20052;-64
2021/07/24 09:28:20;;;;;;;10.77;8.93;;;21.80;76.30;;;;;;5114555;28;20047;-64
2021/07/24 09:30:46;;;;;;;10.13;8.75;;;22.00;76.30;;;;;;5114134;28;20192;-65
2021/07/24 09:33:16;;;;;;;11.02;8.40;;;22.10;75.60;;;;;;5113120;28;20047;-65
2021/07/24 09:35:46;;;;;;;9.88;8.43;;;22.30;75.20;;;;;;5114162;28;20052;-64
2021/07/24 09:38:25;;;;;;;9.60;8.15;;;22.40;75.20;;;;;;5113441;28;20054;-65
2021/07/24 09:40:56;;;;;;;11.07;8.85;;;22.60;73.80;;;;;;5114271;28;20138;-65
2021/07/24 09:43:39;;;;;;;12.60;9.10;;;22.70;72.80;;;;;;5113677;28;20044;-64
2021/07/24 09:46:19;;;;;;;9.57;7.70;;;22.80;71.70;;;;;;5112774;28;20048;-64
2021/07/24 09:48:47;;;;;;;9.82;8.15;;;22.80;70.90;;;;;;5114191;28;20047;-65
2021/07/24 09:51:14;;;;;;;9.13;7.90;;;22.80;70.40;;;;;;5113650;28;20071;-64
2021/07/24 09:53:40;;;;;;;9.88;8.35;;;22.80;69.80;;;;;;5113219;28;20055;-64
2021/07/24 09:56:11;;;;;;;11.02;9.52;;;22.80;69.60;;;;;;5113448;28;20066;-65
2021/07/24 09:58:38;;;;;;;9.95;7.53;;;22.80;69.70;;;;;;5114226;28;20050;-64
2021/07/24 10:01:09;;;;;;;9.20;6.88;;;22.80;69.50;;;;;;5112911;28;20086;-64
2021/07/24 10:03:36;;;;;;;10.77;7.70;;;22.80;69.60;;;;;;5113536;28;20055;-64
2021/07/24 10:06:22;;;;;;;9.00;7.50;;;22.80;69.10;;;;;;5113300;28;20043;-64
2021/07/24 10:08:49;;;;;;;8.63;7.72;;;22.90;69.50;;;;;;5113092;28;20047;-64
2021/07/24 10:11:15;;;;;;;10.30;8.32;;;22.80;68.60;;;;;;5113361;28;20055;-64
2021/07/24 10:13:42;;;;;;;15.13;8.48;;;22.80;68.30;;;;;;5113150;28;20061;-64
2021/07/24 10:16:08;;;;;;;11.25;8.77;;;22.90;68.80;;;;;;5113051;28;20132;-64
2021/07/24 10:18:35;;;;;;;11.93;9.05;;;22.90;68.90;;;;;;5113562;28;20165;-64
2021/07/24 10:21:01;;;;;;;11.07;9.48;;;22.90;69.20;;;;;;5112002;28;20051;-64
2021/07/24 10:23:28;;;;;;;13.27;8.85;;;22.90;68.80;;;;;;5113060;28;20397;-64
2021/07/24 10:26:08;;;;;;;12.02;8.63;;;23.00;69.00;;;;;;5113229;28;20514;-64
2021/07/24 10:28:46;;;;;;;9.95;8.57;;;23.00;68.80;;;;;;5112467;28;20043;-64
2021/07/24 10:31:14;;;;;;;10.10;8.10;;;23.10;68.40;;;;;;5113023;28;20189;-64
2021/07/24 10:33:41;;;;;;;11.98;8.50;;;23.10;68.20;;;;;;5112974;28;20043;-64
2021/07/24 10:36:15;;;;;;;11.20;8.73;;;23.10;68.10;;;;;;5111681;28;20419;-64
2021/07/24 10:38:58;;;;;;;10.95;8.75;;;23.10;68.20;;;;;;5113437;28;20055;-64
2021/07/24 10:41:24;;;;;;;10.15;9.10;;;23.10;68.70;;;;;;5112733;28;20051;-64
2021/07/24 10:44:06;;;;;;;11.10;7.85;;;23.10;68.50;;;;;;5112028;28;20134;-64
2021/07/24 10:46:41;;;;;;;13.43;8.85;;;23.20;68.20;;;;;;5113173;28;20116;-64
2021/07/24 10:49:33;;;;;;;11.52;8.40;;;23.20;67.80;;;;;;5111370;28;20055;-64
2021/07/24 10:52:00;;;;;;;11.80;8.30;;;23.30;67.30;;;;;;5103518;28;20050;-64
2021/07/24 10:54:31;;;;;;;13.90;8.98;;;23.50;67.30;;;;;;5112883;28;20054;-64
2021/07/24 10:56:58;;;;;;;10.77;7.70;;;23.70;66.70;;;;;;5111735;28;20081;-64
2021/07/24 10:59:27;;;;;;;9.77;7.57;;;23.90;66.70;;;;;;5112350;28;20052;-64
2021/07/24 11:01:58;;;;;;;9.70;7.90;;;24.10;66.90;;;;;;5112618;28;20048;-65
2021/07/24 11:04:35;;;;;;;9.90;7.45;;;24.30;66.40;;;;;;5111489;28;20047;-64
2021/07/24 11:07:13;;;;;;;8.65;7.60;;;24.40;65.40;;;;;;5111809;28;20079;-64
2021/07/24 11:09:43;;;;;;;9.93;8.07;;;24.40;65.50;;;;;;5111368;28;20503;-64
2021/07/24 11:12:10;;;;;;;10.70;7.50;;;24.30;65.70;;;;;;5111934;28;20341;-64
2021/07/24 11:14:41;;;;;;;8.43;7.50;;;24.30;65.80;;;;;;5112162;28;20047;-64
2021/07/24 11:17:06;;;;;;;11.77;8.20;;;24.40;65.30;;;;;;5110921;28;20050;-64
2021/07/24 11:19:51;;;;;;;11.23;8.20;;;24.40;65.80;;;;;;5111908;28;20135;-64
2021/07/24 11:22:24;;;;;;;11.77;8.68;;;24.60;65.10;;;;;;5111442;28;20048;-64
2021/07/24 11:24:50;;;;;;;9.98;8.98;;;24.80;64.20;;;;;;5111690;28;20058;-64
2021/07/24 11:27:28;;;;;;;9.25;7.30;;;24.90;63.80;;;;;;5111841;28;20043;-64
2021/07/24 11:29:55;;;;;;;11.15;8.07;;;25.00;62.90;;;;;;5112075;28;20388;-64
2021/07/24 11:32:25;;;;;;;8.55;7.45;;;24.90;62.70;;;;;;5110186;28;20044;-64
2021/07/24 11:34:59;;;;;;;10.27;7.60;;;24.90;62.80;;;;;;5111774;28;20047;-65
2021/07/24 11:37:45;;;;;;;8.50;7.55;;;25.00;62.60;;;;;;5111897;28;20044;-64
2021/07/24 11:40:24;;;;;;;10.73;8.32;;;25.00;62.30;;;;;;5111332;28;20073;-64
2021/07/24 11:43:04;;;;;;;9.50;8.20;;;24.90;62.20;;;;;;5111729;28;20123;-64
2021/07/24 11:45:35;;;;;;;9.82;8.82;;;24.90;62.70;;;;;;5111762;28;20446;-65
2021/07/24 11:48:18;;;;;;;9.98;8.20;;;24.90;62.60;;;;;;5111657;28;20073;-65
2021/07/24 11:50:49;;;;;;;11.60;8.98;;;24.90;62.90;;;;;;5111840;28;20065;-62
2021/07/24 11:53:19;;;;;;;12.20;7.97;;;24.90;62.30;;;;;;5110254;28;20050;-62
2021/07/24 11:55:45;;;;;;;13.18;8.43;;;24.90;62.30;;;;;;5111630;28;20108;-62
2021/07/24 11:58:16;;;;;;;11.82;8.52;;;24.90;62.40;;;;;;5111473;28;20384;-62
2021/07/24 12:00:50;;;;;;;12.70;8.57;;;24.90;62.60;;;;;;5110963;28;20043;-64
2021/07/24 12:03:28;;;;;;;12.13;9.05;;;24.80;62.20;;;;;;5111268;28;20475;-64
2021/07/24 12:05:59;;;;;;;16.55;9.70;;;24.80;61.90;;;;;;5111335;28;20044;-64
2021/07/24 12:08:26;;;;;;;11.10;8.02;;;24.80;62.20;;;;;;5111646;28;20142;-64
2021/07/24 12:10:53;;;;;;;11.07;9.05;;;24.80;62.20;;;;;;5111581;28;20127;-64
2021/07/24 12:13:24;;;;;;;10.25;8.68;;;24.80;62.40;;;;;;5110635;28;20048;-64
2021/07/24 12:15:55;;;;;;;10.68;8.50;;;24.70;62.80;;;;;;5111197;28;20437;-64
2021/07/24 12:18:21;;;;;;;12.80;9.60;;;24.80;62.60;;;;;;5111399;28;20043;-64
2021/07/24 12:20:49;;;;;;;10.93;9.82;;;24.80;62.40;;;;;;5110721;28;20051;-64
2021/07/24 12:23:22;;;;;;;10.05;8.90;;;24.90;62.00;;;;;;5110749;28;20130;-64
2021/07/24 12:26:10;;;;;;;12.18;8.70;;;24.90;62.00;;;;;;5111519;28;20105;-64
2021/07/24 12:28:37;;;;;;;14.77;9.43;;;25.00;62.10;;;;;;5110737;28;20264;-64
2021/07/24 12:31:41;;;;;;;10.75;9.60;;;25.10;62.10;;;;;;5111332;28;20061;-64
2021/07/24 12:34:21;;;;;;;13.50;9.40;;;25.10;62.10;;;;;;5101786;28;20422;-63
2021/07/24 12:36:51;;;;;;;12.55;10.30;;;25.10;62.40;;;;;;5111306;28;20453;-64
2021/07/24 12:39:19;;;;;;;11.93;9.40;;;25.10;62.50;;;;;;5111400;28;20051;-64